createdAt,value
2019-02-16T00:01:02.318Z,99708.95
2019-02-16T00:03:13.252Z,99717.11
2019-02-16T00:05:24.080Z,99714.55
2019-02-16T00:07:34.892Z,99708.98
2019-02-16T00:09:45.876Z,99711.13
2019-02-16T00:11:56.678Z,99709.86
2019-02-16T00:14:07.499Z,99709.44
2019-02-16T00:16:18.304Z,99714.58
2019-02-16T00:18:29.191Z,99714.98
2019-02-16T00:20:40.023Z,99702.63
2019-02-16T00:22:50.865Z,99706.87
2019-02-16T00:25:01.790Z,99701.75
2019-02-16T00:27:12.581Z,99703.05
2019-02-16T00:29:23.380Z,99697.50
2019-02-16T00:31:34.220Z,99701.33
2019-02-16T00:33:45.017Z,99699.19
2019-02-16T00:35:55.829Z,99694.48
2019-02-16T00:38:06.629Z,99693.64
2019-02-16T00:40:17.449Z,99697.05
2019-02-16T00:42:28.274Z,99693.61
2019-02-16T00:44:39.106Z,99692.34
2019-02-16T00:46:49.932Z,99696.18
2019-02-16T00:49:00.716Z,99695.31
2019-02-16T00:51:13.938Z,99701.29
2019-02-16T00:53:24.271Z,99693.17
2019-02-16T00:55:35.063Z,99689.78
2019-02-16T00:57:45.925Z,99688.47
2019-02-16T00:59:56.750Z,99687.64
2019-02-16T01:02:07.565Z,99687.21
2019-02-16T01:04:18.398Z,99684.22
2019-02-16T01:06:29.213Z,99682.10
2019-02-16T01:08:40.018Z,99676.95
2019-02-16T01:10:50.815Z,99676.95
2019-02-16T01:13:01.678Z,99676.11
2019-02-16T01:15:12.584Z,99679.05
2019-02-16T01:17:23.406Z,99674.36
2019-02-16T01:19:34.211Z,99673.95
2019-02-16T01:21:45.013Z,99675.23
2019-02-16T01:23:55.829Z,99668.83
2019-02-16T01:26:06.633Z,99669.28
2019-02-16T01:28:17.459Z,99669.72
2019-02-16T01:30:28.238Z,99661.17
2019-02-16T01:32:39.049Z,99661.20
2019-02-16T01:34:49.868Z,99659.03
2019-02-16T01:37:00.677Z,99668.84
2019-02-16T01:39:11.503Z,99665.42
2019-02-16T01:41:22.293Z,99665.84
2019-02-16T01:43:33.111Z,99661.98
2019-02-16T01:45:43.909Z,99653.46
2019-02-16T01:47:54.715Z,99656.05
2019-02-16T01:50:47.184Z,99651.80
2019-02-16T01:52:57.988Z,99649.25
2019-02-16T01:55:08.901Z,99649.23
2019-02-16T01:57:19.692Z,99643.27
2019-02-16T01:59:30.497Z,99651.36
2019-02-16T02:01:41.309Z,99646.27
2019-02-16T02:03:52.114Z,99650.11
2019-02-16T02:06:02.927Z,99647.95
2019-02-16T02:08:13.722Z,99645.39
2019-02-16T02:10:24.532Z,99644.92
2019-02-16T02:12:35.340Z,99641.89
2019-02-16T02:14:46.171Z,99638.03
2019-02-16T02:16:57.032Z,99642.28
2019-02-16T02:19:07.859Z,99637.56
2019-02-16T02:21:18.646Z,99631.17
2019-02-16T02:23:29.427Z,99642.23
2019-02-16T02:25:40.252Z,99631.56
2019-02-16T02:27:51.052Z,99632.41
2019-02-16T02:32:40.609Z,99636.16
2019-02-16T02:34:51.429Z,99626.00
2019-02-16T02:37:02.248Z,99629.41
2019-02-16T02:39:13.051Z,99625.59
2019-02-16T02:41:23.856Z,99632.87
2019-02-16T02:43:34.676Z,99629.91
2019-02-16T02:45:45.498Z,99629.50
2019-02-16T02:47:56.313Z,99631.19
2019-02-16T02:50:07.331Z,99632.50
2019-02-16T02:52:18.159Z,99635.90
2019-02-16T02:54:28.944Z,99631.22
2019-02-16T02:56:39.882Z,99627.81
2019-02-16T02:58:50.651Z,99631.64
2019-02-16T03:01:01.614Z,99632.45
2019-02-16T03:03:12.511Z,99635.81
2019-02-16T03:05:23.346Z,99631.56
2019-02-16T03:07:34.146Z,99633.65
2019-02-16T03:09:44.932Z,99632.37
2019-02-16T03:11:55.796Z,99634.92
2019-02-16T03:14:06.617Z,99629.39
2019-02-16T03:16:37.314Z,99634.55
2019-02-16T03:18:48.127Z,99634.55
2019-02-16T03:20:58.941Z,99636.66
2019-02-16T03:23:51.420Z,99636.20
2019-02-16T03:26:41.970Z,99636.20
2019-02-16T03:29:32.498Z,99642.55
2019-02-16T03:32:23.063Z,99640.39
2019-02-16T03:35:15.513Z,99648.52
2019-02-16T03:38:07.972Z,99645.14
2019-02-16T03:40:18.763Z,99638.35
2019-02-16T03:42:29.574Z,99639.67
2019-02-16T03:44:40.373Z,99639.23
2019-02-16T03:46:51.178Z,99645.20
2019-02-16T03:49:01.987Z,99640.52
2019-02-16T03:51:12.767Z,99645.17
2019-02-16T03:53:23.586Z,99642.17
2019-02-16T03:55:34.378Z,99648.53
2019-02-16T03:57:45.182Z,99648.05
2019-02-16T03:59:55.973Z,99649.80
2019-02-16T04:02:06.783Z,99644.67
2019-02-16T04:04:17.584Z,99645.93
2019-02-16T04:06:28.390Z,99643.37
2019-02-16T04:08:39.194Z,99642.54
2019-02-16T04:10:49.981Z,99649.38
2019-02-16T04:13:00.816Z,99645.02
2019-02-16T04:15:11.716Z,99653.52
2019-02-16T04:17:22.519Z,99651.78
2019-02-16T04:19:33.321Z,99655.59
2019-02-16T04:21:44.124Z,99657.28
2019-02-16T04:23:54.934Z,99650.45
2019-02-16T04:26:25.633Z,99641.48
2019-02-16T04:28:36.426Z,99641.48
2019-02-16T04:30:47.229Z,99645.39
2019-02-16T04:32:58.123Z,99640.30
2019-02-16T04:35:08.934Z,99633.08
2019-02-16T04:37:19.725Z,99637.38
2019-02-16T04:39:30.533Z,99640.39
2019-02-16T04:42:01.218Z,99636.60
2019-02-16T04:44:12.033Z,99636.60
2019-02-16T04:46:22.834Z,99638.30
2019-02-16T04:48:33.630Z,99644.27
2019-02-16T04:50:44.451Z,99642.13
2019-02-16T04:52:55.240Z,99641.66
2019-02-16T04:55:47.698Z,99644.20
2019-02-16T04:57:58.498Z,99639.08
2019-02-16T05:00:09.457Z,99647.59
2019-02-16T05:02:20.257Z,99647.62
2019-02-16T05:04:31.062Z,99649.34
2019-02-16T05:06:41.876Z,99654.02
2019-02-16T05:08:52.679Z,99653.89
2019-02-16T05:11:03.500Z,99652.19
2019-02-16T05:13:14.393Z,99656.06
2019-02-16T05:15:25.171Z,99654.02
2019-02-16T05:17:35.979Z,99648.95
2019-02-16T05:19:46.778Z,99654.94
2019-02-16T05:21:57.593Z,99656.26
2019-02-16T05:24:08.400Z,99658.36
2019-02-16T05:26:19.224Z,99666.02
2019-02-16T05:28:30.029Z,99665.98
2019-02-16T05:30:40.827Z,99665.48
2019-02-16T05:32:51.697Z,99664.58
2019-02-16T05:35:44.143Z,99665.41
2019-02-16T05:37:54.957Z,99670.06
2019-02-16T05:40:47.408Z,99669.14
2019-02-16T05:42:58.215Z,99671.69
2019-02-16T05:45:09.230Z,99663.98
2019-02-16T05:47:20.039Z,99663.98
2019-02-16T05:49:30.840Z,99667.34
2019-02-16T05:51:41.650Z,99660.13
2019-02-16T05:53:52.440Z,99655.45
2019-02-16T05:56:03.237Z,99655.45
2019-02-16T05:58:14.043Z,99654.15
2019-02-16T06:02:57.232Z,99653.45
2019-02-16T06:05:08.055Z,99654.59
2019-02-16T06:07:18.892Z,99650.80
2019-02-16T06:09:29.690Z,99655.40
2019-02-16T06:11:40.530Z,99656.67
2019-02-16T06:13:51.335Z,99657.47
2019-02-16T06:16:02.140Z,99648.50
2019-02-16T06:18:12.961Z,99653.16
2019-02-16T06:20:23.754Z,99662.92
2019-02-16T06:22:34.567Z,99657.70
2019-02-16T06:24:45.375Z,99663.11
2019-02-16T06:26:56.232Z,99664.78
2019-02-16T06:29:07.028Z,99662.23
2019-02-16T06:31:17.832Z,99662.26
2019-02-16T06:33:28.658Z,99662.31
2019-02-16T06:38:11.844Z,99674.20
2019-02-16T06:40:22.644Z,99675.92
2019-02-16T06:42:33.466Z,99675.95
2019-02-16T06:45:25.900Z,99681.95
2019-02-16T06:47:36.742Z,99679.03
2019-02-16T06:49:47.527Z,99683.28
2019-02-16T06:51:58.315Z,99684.16
2019-02-16T06:54:09.151Z,99681.93
2019-02-16T06:58:52.331Z,99677.77
2019-02-16T07:01:03.141Z,99686.38
2019-02-16T07:03:13.993Z,99683.44
2019-02-16T07:05:24.807Z,99684.32
2019-02-16T07:07:35.654Z,99689.06
2019-02-16T07:09:46.501Z,99690.80
2019-02-16T07:11:57.311Z,99688.29
2019-02-16T07:14:08.149Z,99686.63
2019-02-16T07:19:11.188Z,99694.79
2019-02-16T07:21:21.994Z,99696.96
2019-02-16T07:23:32.800Z,99699.55
2019-02-16T07:26:04.936Z,99699.56
2019-02-16T07:28:16.216Z,99699.56
2019-02-16T07:30:27.047Z,99698.30
2019-02-16T07:32:37.852Z,99690.20
2019-02-16T07:34:48.700Z,99697.47
2019-02-16T07:36:59.485Z,99688.06
2019-02-16T07:39:10.307Z,99682.54
2019-02-16T07:41:21.116Z,99693.20
2019-02-16T07:46:24.165Z,99687.67
2019-02-16T07:48:54.852Z,99694.50
2019-02-16T07:51:25.660Z,99698.77
2019-02-16T07:53:56.352Z,99694.78
2019-02-16T08:01:04.438Z,99681.89
2019-02-16T08:03:35.825Z,99682.95
2019-02-16T08:06:06.587Z,99687.27
2019-02-16T08:08:37.299Z,99681.98
2019-02-16T08:13:26.982Z,99676.62
2019-02-16T08:18:30.058Z,99677.64
2019-02-16T08:21:00.762Z,99674.81
2019-02-16T08:26:03.828Z,99675.00
2019-02-16T08:31:06.894Z,99674.74
2019-02-16T08:33:37.587Z,99671.00
2019-02-16T08:36:08.260Z,99672.96
2019-02-16T08:38:38.958Z,99672.14
2019-02-16T08:41:09.638Z,99670.91
2019-02-16T08:46:02.669Z,99668.11
2019-02-16T08:50:51.994Z,99670.59
2019-02-16T08:53:22.706Z,99666.44
2019-02-16T08:55:53.377Z,99656.03
2019-02-16T09:00:46.270Z,99655.02
2019-02-16T09:03:16.977Z,99647.85
2019-02-16T09:05:47.674Z,99651.98
2019-02-16T09:08:18.385Z,99639.47
2019-02-16T09:13:21.426Z,99641.41
2019-02-16T09:15:52.143Z,99641.88
2019-02-16T09:23:00.179Z,99636.14
2019-02-16T09:25:31.079Z,99629.39
2019-02-16T09:30:34.240Z,99637.50
2019-02-16T09:33:04.924Z,99633.70
2019-02-16T09:35:35.637Z,99632.03
2019-02-16T09:38:06.329Z,99632.27
2019-02-16T09:42:55.730Z,99629.91
2019-02-16T09:45:26.554Z,99623.84
2019-02-16T09:47:57.245Z,99633.44
2019-02-16T09:50:28.276Z,99630.07
2019-02-16T09:52:59.015Z,99635.32
2019-02-16T09:55:29.736Z,99631.31
2019-02-16T09:58:00.491Z,99628.17
2019-02-16T10:00:31.197Z,99628.25
2019-02-16T10:03:01.888Z,99624.94
2019-02-16T10:07:54.760Z,99618.48
2019-02-16T10:12:44.239Z,99621.49
2019-02-16T10:15:14.977Z,99617.80
2019-02-16T10:17:45.670Z,99621.24
2019-02-16T10:20:16.337Z,99631.91
2019-02-16T10:25:05.410Z,99625.53
2019-02-16T10:27:36.105Z,99634.00
2019-02-16T10:30:06.805Z,99625.23
2019-02-16T10:32:37.485Z,99629.09
2019-02-16T10:35:08.166Z,99633.70
2019-02-16T10:39:57.753Z,99626.85
2019-02-16T10:42:28.468Z,99623.86
2019-02-16T10:44:59.146Z,99624.87
2019-02-16T10:52:28.860Z,99623.47
2019-02-16T10:57:31.912Z,99618.39
2019-02-16T11:00:02.596Z,99615.69
2019-02-16T11:09:33.480Z,99595.80
2019-02-16T11:14:36.840Z,99580.84
2019-02-16T11:17:07.532Z,99582.23
2019-02-16T11:19:38.227Z,99585.21
2019-02-16T11:22:08.907Z,99580.35
2019-02-16T11:29:20.816Z,99577.53
2019-02-16T11:31:51.491Z,99574.24
2019-02-16T11:34:22.183Z,99574.28
2019-02-16T11:41:48.016Z,99571.12
2019-02-16T11:44:18.700Z,99564.23
2019-02-16T11:46:49.377Z,99562.02
2019-02-16T11:51:38.848Z,99563.28
2019-02-16T11:54:09.564Z,99563.78
2019-02-16T12:03:50.552Z,99555.17
2019-02-16T12:06:21.272Z,99549.54
2019-02-16T12:08:51.982Z,99549.17
2019-02-16T12:11:22.699Z,99547.67
2019-02-16T12:18:44.225Z,99534.80
2019-02-16T12:23:36.956Z,99524.31
2019-02-16T12:26:07.648Z,99521.05
2019-02-16T12:28:38.313Z,99518.53
2019-02-16T12:31:09.085Z,99519.56
2019-02-16T12:36:12.100Z,99516.95
2019-02-16T12:41:15.157Z,99507.78
2019-02-16T12:46:18.210Z,99492.64
2019-02-16T12:48:48.876Z,99497.69
2019-02-16T12:53:42.047Z,99490.08
2019-02-16T12:56:12.741Z,99485.70
2019-02-16T12:58:43.406Z,99487.98
2019-02-16T13:01:14.115Z,99488.70
2019-02-16T13:03:44.813Z,99488.14
2019-02-16T13:06:15.503Z,99487.95
2019-02-16T13:08:46.193Z,99487.30
2019-02-16T13:13:49.299Z,99480.81
2019-02-16T13:18:52.341Z,99474.25
2019-02-16T13:21:23.019Z,99476.77
2019-02-16T13:23:53.728Z,99471.88
2019-02-16T13:26:24.402Z,99466.45
2019-02-16T13:28:55.118Z,99465.69
2019-02-16T13:31:25.809Z,99463.00
2019-02-16T13:33:56.515Z,99467.46
2019-02-16T13:38:59.573Z,99465.52
2019-02-16T13:41:30.227Z,99455.69
2019-02-16T13:50:57.562Z,99461.50
2019-02-16T13:55:47.318Z,99457.94
2019-02-16T13:58:18.016Z,99456.33
2019-02-16T14:07:48.338Z,99453.45
2019-02-16T14:10:19.023Z,99451.70
2019-02-16T14:12:49.722Z,99445.59
2019-02-16T14:15:20.440Z,99438.50
2019-02-16T14:20:45.255Z,99440.83
2019-02-16T14:22:56.072Z,99440.00
2019-02-16T14:30:27.858Z,99441.50
2019-02-16T14:32:38.652Z,99435.09
2019-02-16T14:34:49.500Z,99427.13
2019-02-16T14:42:05.056Z,99430.77
2019-02-16T14:44:15.866Z,99421.86
2019-02-16T14:46:26.679Z,99423.44
2019-02-16T14:48:37.611Z,99422.67
2019-02-16T14:50:48.436Z,99421.66
2019-02-16T14:52:59.297Z,99425.76
2019-02-16T14:55:32.010Z,99424.90
2019-02-16T14:57:42.824Z,99420.78
2019-02-16T14:59:53.626Z,99422.92
2019-02-16T15:02:04.478Z,99419.00
2019-02-16T15:04:15.277Z,99411.50
2019-02-16T15:06:26.125Z,99416.83
2019-02-16T15:08:36.959Z,99419.34
2019-02-16T15:10:47.733Z,99418.30
2019-02-16T15:12:58.554Z,99415.96
2019-02-16T15:15:51.024Z,99419.68
2019-02-16T15:18:03.722Z,99417.97
2019-02-16T15:20:56.235Z,99412.95
2019-02-16T15:23:07.040Z,99413.02
2019-02-16T15:25:17.843Z,99411.14
2019-02-16T15:27:28.674Z,99408.79
2019-02-16T15:29:39.472Z,99413.02
2019-02-16T15:31:50.270Z,99407.89
2019-02-16T15:34:01.086Z,99405.51
2019-02-16T15:36:11.909Z,99413.59
2019-02-16T15:38:22.747Z,99411.88
2019-02-16T15:40:33.569Z,99405.74
2019-02-16T15:42:44.406Z,99403.66
2019-02-16T15:44:55.218Z,99397.77
2019-02-16T15:47:06.012Z,99400.25
2019-02-16T15:49:16.856Z,99390.56
2019-02-16T15:51:27.683Z,99396.83
2019-02-16T15:53:38.516Z,99389.13
2019-02-16T15:56:10.826Z,99391.26
2019-02-16T15:58:22.158Z,99388.56
2019-02-16T16:00:33.097Z,99391.87
2019-02-16T16:03:25.555Z,99393.84
2019-02-16T16:05:36.361Z,99398.02
2019-02-16T16:15:16.724Z,99408.52
2019-02-16T16:17:47.432Z,99409.29
2019-02-16T16:20:18.131Z,99410.50
2019-02-16T16:25:21.194Z,99414.56
2019-02-16T16:30:46.005Z,99406.30
2019-02-16T16:33:16.720Z,99411.09
2019-02-16T16:35:47.429Z,99412.31
2019-02-16T16:40:50.493Z,99416.69
2019-02-16T16:45:53.530Z,99403.95
2019-02-16T16:48:24.230Z,99412.34
2019-02-16T16:50:54.928Z,99408.27
2019-02-16T16:53:25.628Z,99405.19
2019-02-16T16:58:15.426Z,99418.83
2019-02-16T17:00:46.126Z,99422.41
2019-02-16T17:03:16.814Z,99427.09
2019-02-16T17:05:47.532Z,99431.38
2019-02-16T17:08:18.228Z,99432.99
2019-02-16T17:10:48.944Z,99440.77
2019-02-16T17:13:19.619Z,99445.88
2019-02-16T17:15:50.344Z,99445.13
2019-02-16T17:18:21.020Z,99440.44
2019-02-16T17:20:51.744Z,99445.75
2019-02-16T17:23:22.434Z,99447.83
2019-02-16T17:25:53.145Z,99456.42
2019-02-16T17:28:23.838Z,99454.81
2019-02-16T17:30:54.531Z,99461.16
2019-02-16T17:33:25.234Z,99461.31
2019-02-16T17:38:28.303Z,99468.95
2019-02-16T17:40:58.996Z,99475.74
2019-02-16T17:43:29.721Z,99470.94
2019-02-16T17:46:00.429Z,99474.45
2019-02-16T17:48:31.187Z,99474.75
2019-02-16T17:53:54.121Z,99473.22
2019-02-16T17:56:24.906Z,99477.44
2019-02-16T17:58:55.617Z,99475.41
2019-02-16T18:03:58.707Z,99484.63
2019-02-16T18:06:29.419Z,99482.20
2019-02-16T18:09:00.132Z,99482.02
2019-02-16T18:11:30.836Z,99488.69
2019-02-16T18:14:01.564Z,99483.25
2019-02-16T18:16:32.399Z,99486.21
2019-02-16T18:23:40.735Z,99484.81
2019-02-16T18:28:43.887Z,99485.41
2019-02-16T18:33:46.941Z,99475.98
2019-02-16T18:36:17.633Z,99476.88
2019-02-16T18:41:20.679Z,99468.70
2019-02-16T18:43:51.503Z,99471.80
2019-02-16T18:46:22.288Z,99469.97
2019-02-16T18:51:25.381Z,99465.88
2019-02-16T18:53:56.123Z,99467.77
2019-02-16T18:56:26.792Z,99470.52
2019-02-16T18:58:57.466Z,99468.34
2019-02-16T19:01:28.208Z,99465.25
2019-02-16T19:03:58.917Z,99461.34
2019-02-16T19:06:29.663Z,99460.37
2019-02-16T19:09:01.292Z,99454.88
2019-02-16T19:11:32.042Z,99455.39
2019-02-16T19:14:02.759Z,99460.66
2019-02-16T19:16:33.506Z,99458.84
2019-02-16T19:19:04.199Z,99463.27
2019-02-16T19:21:34.917Z,99462.92
2019-02-16T19:24:05.601Z,99462.08
2019-02-16T19:28:58.672Z,99458.17
2019-02-16T19:31:29.421Z,99457.02
2019-02-16T19:34:00.106Z,99461.04
2019-02-16T19:38:53.716Z,99456.78
2019-02-16T19:41:24.450Z,99460.69
2019-02-16T19:43:55.124Z,99460.34
2019-02-16T19:48:58.172Z,99453.13
2019-02-16T19:51:28.877Z,99444.73
2019-02-16T19:53:59.584Z,99449.36
2019-02-16T19:56:30.441Z,99450.16
2019-02-16T19:59:01.209Z,99442.03
2019-02-16T20:01:31.897Z,99449.84
2019-02-16T20:04:02.683Z,99449.45
2019-02-16T20:13:46.905Z,99449.70
2019-02-16T20:18:50.001Z,99448.01
2019-02-16T20:21:20.724Z,99451.51
2019-02-16T20:23:51.428Z,99449.14
2019-02-16T20:26:22.082Z,99451.87
2019-02-16T20:28:52.801Z,99454.48
2019-02-16T20:33:55.872Z,99452.43
2019-02-16T20:36:26.567Z,99450.81
2019-02-16T20:38:57.266Z,99446.19
2019-02-16T20:41:27.996Z,99443.76
2019-02-16T20:43:58.703Z,99444.37
2019-02-16T20:46:29.443Z,99445.25
2019-02-16T20:49:00.142Z,99439.30
2019-02-16T20:56:11.455Z,99450.55
2019-02-16T20:58:42.215Z,99451.80
2019-02-16T21:03:35.151Z,99449.64
2019-02-16T21:06:05.841Z,99451.89
2019-02-16T21:08:36.538Z,99452.77
2019-02-16T21:11:07.236Z,99445.56
2019-02-16T21:16:10.308Z,99444.81
2019-02-16T21:18:41.006Z,99444.37
2019-02-16T21:21:11.718Z,99438.80
2019-02-16T21:23:42.421Z,99439.20
2019-02-16T21:26:13.129Z,99436.70
2019-02-16T21:36:07.143Z,99430.28
2019-02-16T21:38:37.834Z,99432.47
2019-02-16T21:41:08.504Z,99430.75
2019-02-16T21:43:39.220Z,99427.34
2019-02-16T21:46:09.910Z,99433.90
2019-02-16T21:48:40.630Z,99434.03
2019-02-16T21:51:11.290Z,99431.52
2019-02-16T21:53:42.068Z,99423.49
2019-02-16T21:56:12.747Z,99430.80
2019-02-16T21:58:43.675Z,99418.82
2019-02-16T22:01:15.398Z,99421.84
2019-02-16T22:03:46.170Z,99427.44
2019-02-16T22:06:16.868Z,99420.16
2019-02-16T22:08:47.590Z,99422.75
2019-02-16T22:11:18.251Z,99420.20
2019-02-16T22:13:29.089Z,99422.80
2019-02-16T22:15:39.933Z,99420.61
2019-02-16T22:17:50.755Z,99414.59
2019-02-16T22:20:43.227Z,99402.58
2019-02-16T22:22:54.045Z,99406.84
2019-02-16T22:25:04.988Z,99409.87
2019-02-16T22:27:15.798Z,99418.08
2019-02-16T22:29:26.618Z,99409.50
2019-02-16T22:31:37.434Z,99411.59
2019-02-16T22:33:48.257Z,99414.97
2019-02-16T22:35:59.064Z,99408.56
2019-02-16T22:38:09.898Z,99415.51
2019-02-16T22:40:20.759Z,99413.06
2019-02-16T22:42:31.573Z,99411.80
2019-02-16T22:44:42.389Z,99414.34
2019-02-16T22:46:53.206Z,99413.47
2019-02-16T22:49:04.011Z,99412.61
2019-02-16T22:51:14.939Z,99414.71
2019-02-16T22:53:25.735Z,99418.20
2019-02-16T22:55:36.591Z,99414.88
2019-02-16T22:57:47.412Z,99418.76
2019-02-16T22:59:58.242Z,99420.47
2019-02-16T23:02:50.675Z,99426.88
2019-02-16T23:05:01.598Z,99425.62
2019-02-16T23:07:12.400Z,99426.52
2019-02-16T23:09:43.203Z,99429.13
2019-02-16T23:11:54.123Z,99431.25
2019-02-16T23:14:04.911Z,99431.70
2019-02-16T23:16:15.764Z,99429.16
2019-02-16T23:18:26.663Z,99428.30
2019-02-16T23:20:37.493Z,99425.73
2019-02-16T23:22:48.315Z,99418.88
2019-02-16T23:24:59.118Z,99420.98
2019-02-16T23:27:10.029Z,99419.25
2019-02-16T23:29:20.833Z,99411.14
2019-02-16T23:31:31.654Z,99421.00
2019-02-16T23:33:42.472Z,99414.16
2019-02-16T23:35:53.349Z,99412.48
2019-02-16T23:38:04.133Z,99417.63
2019-02-16T23:40:14.946Z,99413.78
2019-02-16T23:42:25.824Z,99413.78
2019-02-16T23:44:36.624Z,99412.52
2019-02-16T23:46:47.453Z,99418.57
2019-02-16T23:48:58.240Z,99419.05
2019-02-16T23:51:09.054Z,99419.54
2019-02-16T23:53:19.860Z,99415.73
2019-02-16T23:55:30.667Z,99418.69
2019-02-16T23:57:41.505Z,99416.53
2019-02-16T23:59:52.305Z,99411.41
